Flight Track Log - Related Links

Times and Time Zones

All times are in EDT time to prevent confusion due to time zone crossing. See the CHQ6134 flight status page for this flight to view local times or setup timezone preferences in your user account.

Time Position Orientation Groundspeed Altitude Reporting Facility
EDT Latitude Longitude Course Direction KTS MPH feet Rate Location/Type
Fri 09:58:29 PM 39.0500 -84.6833 47° Northeast 162 186 1,300  Level Cincinnati TRACON
Fri 09:59:41 PM 39.0833 -84.7167 322° Northwest 197 227 3,700 1,915 Climbing Cincinnati TRACON
Fri 10:01:00 PM 39.0026 -84.2601 63° Northeast  Level FlightAware Approximate
Fri 10:02:00 PM 39.0780 -84.1276 44° Northeast  Level FlightAware Approximate
Fri 10:02:02 PM 39.1253 -84.5411 73° East 253 291 8,100  Level Indianapolis Center
Fri 10:03:00 PM 39.1580 -84.0022 47° Northeast  Level FlightAware Approximate
Fri 10:03:03 PM 39.1358 -84.4478 82° East 261 300 10,300  Level Indianapolis Center
Fri 10:04:05 PM 39.1481 -84.3497 81° East 270 311 12,200 1,756 Climbing Indianapolis Center
Fri 10:05:06 PM 39.1603 -84.2467 81° East 285 328 13,900 1,574 Climbing Indianapolis Center
Fri 10:06:07 PM 39.1725 -84.1381 82° East 300 345 15,400 1,512 Climbing Indianapolis Center
Fri 10:07:09 PM 39.1850 -84.0236 82° East 315 362 17,000 1,805 Climbing Indianapolis Center
Fri 10:08:10 PM 39.2203 -83.8950 70° East 326 375 19,100 1,820 Climbing Indianapolis Center
Fri 10:09:11 PM 39.2606 -83.7875 64° Northeast 332 382 20,700 1,525 Climbing Indianapolis Center
Fri 10:10:12 PM 39.3022 -83.6786 64° Northeast 335 386 22,200 1,171 Climbing Indianapolis Center
Fri 10:11:14 PM 39.3439 -83.5669 64° Northeast 343 395 23,100 1,122 Climbing Indianapolis Center
Fri 10:12:15 PM 39.3861 -83.4567 64° Northeast 342 394 24,500 1,426 Climbing Indianapolis Center
Fri 10:13:16 PM 39.4278 -83.3450 64° Northeast 344 396 26,000 1,475 Climbing Indianapolis Center
Fri 10:14:17 PM 39.4694 -83.2333 64° Northeast 344 396 27,500 1,220 Climbing Indianapolis Center
Fri 10:15:19 PM 39.5108 -83.1233 64° Northeast 340 391 28,500 732 Climbing Indianapolis Center
Fri 10:16:20 PM 39.5550 -83.0061 64° Northeast 356 410 29,000 246 Climbing Indianapolis Center
Fri 10:17:21 PM 39.6028 -82.8772 64° Northeast 387 445 29,000  Level Indianapolis Center
Fri 10:18:22 PM 39.6186 -82.7250 82° East 419 482 29,000  Level Indianapolis Center
Fri 10:19:24 PM 39.6331 -82.5503 84° East 417 480 29,000  Level Indianapolis Center
Fri 10:20:25 PM 39.6439 -82.3992 85° East 418 481 29,000  Level Indianapolis Center
Fri 10:21:26 PM 39.6558 -82.2494 84° East 415 478 29,000  Level Indianapolis Center
Fri 10:22:27 PM 39.6661 -82.1078 85° East 416 479 29,000  Level Indianapolis Center
Fri 10:23:29 PM 39.6775 -81.9575 84° East 416 479 29,000  Level Indianapolis Center
Fri 10:24:30 PM 39.6881 -81.8083 85° East 414 476 29,000  Level Indianapolis Center
Fri 10:25:31 PM 39.6994 -81.6547 84° East 423 487 29,000  Level Indianapolis Center
Fri 10:26:32 PM 39.7103 -81.4881 85° East 430 495 29,000  Level Indianapolis Center
Fri 10:27:33 PM 39.7289 -81.3447 80° East 433 498 29,000  Level Indianapolis Center
Fri 10:28:35 PM 39.7592 -81.1903 76° East 439 505 29,000  Level Indianapolis Center
Fri 10:29:36 PM 39.7961 -81.0025 76° East 444 511 29,000  Level Indianapolis Center
Fri 10:30:37 PM 39.8261 -80.8467 76° East 444 511 29,000  Level Indianapolis Center
Fri 10:31:38 PM 39.8558 -80.6908 76° East 444 511 29,000  Level Indianapolis Center
Fri 10:32:39 PM 39.8850 -80.5353 76° East 442 509 29,000  Level Indianapolis Center
Fri 10:33:41 PM 39.9153 -80.3811 76° East 438 504 29,000  Level Indianapolis Center
Fri 10:34:44 PM 39.9583 -80.2311 69° East 430 495 29,000  Level Cleveland Center
Fri 10:35:44 PM 39.9994 -80.0817 70° East 435 501 29,000  Level Cleveland Center
Fri 10:36:44 PM 40.0361 -79.9322 72° East 435 501 29,000  Level Cleveland Center
Fri 10:37:44 PM 40.0747 -79.7828 71° East 435 501 29,000 -200 Level Cleveland Center
Fri 10:38:44 PM 40.1111 -79.6331 72° East 435 501 28,600 -700 Descending Cleveland Center
Fri 10:39:44 PM 40.1283 -79.4697 82° East 435 501 27,600 -1,050 Descending Cleveland Center
Fri 10:40:44 PM 40.1517 -79.3119 79° East 440 506 26,500 -1,050 Descending Cleveland Center
Fri 10:41:44 PM 40.1686 -79.1511 82° East 445 512 25,500 -750 Descending Cleveland Center
Fri 10:42:44 PM 40.1875 -78.9933 81° East 445 512 25,000 -250 Descending Cleveland Center
Fri 10:43:44 PM 40.2061 -78.8433 81° East 440 506 25,000  Level Cleveland Center
Fri 10:44:44 PM 40.2283 -78.6767 80° East 423 487 25,000  Level Cleveland Center
Fri 10:45:44 PM 40.2447 -78.5322 81° East 413 475 25,000  Level Cleveland Center
Fri 10:47:36 PM 40.2783 -78.2589 81° East 402 463 25,000  Level New York Center
Fri 10:48:36 PM 40.2961 -78.1083 81° East 407 468 25,000  Level New York Center
Fri 10:49:36 PM 40.3114 -77.9603 82° East 412 474 25,000 -149 Level New York Center
Fri 10:50:37 PM 40.3094 -77.8211 91° East 412 474 24,700 -650 Descending New York Center
Fri 10:51:36 PM 40.2992 -77.6786 95° East 412 474 23,700 -843 Descending New York Center
Fri 10:52:38 PM 40.2842 -77.5383 98° East 400 460 23,000 -344 Descending New York Center
Fri 10:53:38 PM 40.2692 -77.4006 98° East 389 448 23,000  Level New York Center
Fri 10:54:38 PM 40.2500 -77.2575 100° East 389 448 23,000 -100 Level New York Center
Fri 10:55:38 PM 40.2369 -77.1119 97° East 396 456 22,800 -821 Descending New York Center
Fri 10:56:35 PM 40.2214 -76.9747 98° East 391 450 21,400 -1,424 Descending New York Center
Fri 10:57:36 PM 40.2056 -76.8400 99° East 380 437 20,000 -1,377 Descending New York Center
Fri 10:58:37 PM 40.1919 -76.6947 97° East 369 425 18,600 -1,180 Descending New York Center
Fri 10:59:38 PM 40.1775 -76.5658 98° East 357 411 17,600 -793 Descending New York Center
Fri 11:00:38 PM 40.1642 -76.4533 99° East 351 404 17,000 -661 Descending New York Center
Fri 11:01:36 PM 40.1511 -76.3353 98° East 338 389 16,300 -1,600 Descending New York Center
Fri 11:02:38 PM 40.1364 -76.2067 98° East 333 383 13,800 -2,370 Descending New York Center
Fri 11:03:35 PM 40.1231 -76.0833 98° East 338 389 11,600 -2,034 Descending New York Center
Fri 11:04:36 PM 40.1097 -75.9656 98° East 333 383 9,800 -1,686 Descending New York Center
Fri 11:05:36 PM 40.0936 -75.8531 101° East 324 373 8,200 -843 Descending New York Center
Fri 11:06:37 PM 40.0831 -75.7575 98° East 300 345 8,100 -49 Descending New York Center
Fri 11:07:38 PM 40.0753 -75.6456 95° East 285 328 8,100 -50 Level New York Center
Fri 11:08:38 PM 40.0711 -75.5422 93° East 285 328 8,000 -661 Descending New York Center
Fri 11:09:36 PM 40.0650 -75.4361 94° East 285 328 6,800 -1,250 Descending New York Center
Fri 11:10:14 PM 40.0667 -75.3667 88° East 271 312 6,000 -490 Descending Philadelphia TRACON
Fri 11:11:14 PM 40.0667 -75.2667 90° East 272 313 6,000  Level Philadelphia TRACON
Fri 11:12:08 PM 40.0333 -75.2000 123° Southeast 237 273 6,000  Level Philadelphia TRACON
Fri 11:13:14 PM 39.9833 -75.1333 134° Southeast 212 244 6,000 -45 Level Philadelphia TRACON
Fri 11:14:20 PM 40.0000 -75.0500 75° East 233 268 5,900 -600 Descending Philadelphia TRACON
Fri 11:15:14 PM 39.9667 -75.0167 143° Southeast 200 230 4,800 -1,474 Descending Philadelphia TRACON
Fri 11:16:14 PM 39.9167 -75.0500 207° Southwest 202 232 3,100 -1,700 Descending Philadelphia TRACON

Login

Don't have an account? Register now (free) for customized features, flight alerts, and more!